Time;durP1;ratioP1;P1;durP2;ratioP2;P2;SDS_P1;SDS_P2;PMS_P1;PMS_P2;Temp;Humidity;BMP_temperature;BMP_pressure;BME280_temperature;BME280_humidity;BME280_pressure;Samples;Min_cycle;Max_cycle;Signal;HPM_P1;HPM_P2
2024/01/18 00:01:51;;;;;;;36.80;24.30;;;;;;;;;;5066325;28;20196;-87
2024/01/18 00:04:17;;;;;;;35.40;23.30;;;;;;;;;;5099670;28;20200;-87
2024/01/18 00:06:44;;;;;;;37.63;24.47;;;;;;;;;;5075275;28;20235;-88
2024/01/18 00:09:11;;;;;;;35.00;24.37;;;;;;;;;;5074858;28;20203;-88
2024/01/18 00:11:39;;;;;;;34.90;22.47;;;;;;;;;;5075345;28;20247;-87
2024/01/18 00:14:06;;;;;;;35.80;23.60;;;;;;;;;;5067988;28;20257;-86
2024/01/18 00:16:34;;;;;;;36.70;23.63;;;;;;;;;;5073758;28;20220;-87
2024/01/18 00:19:05;;;;;;;34.53;23.47;;;;;;;;;;5088120;28;20250;-87
2024/01/18 00:21:32;;;;;;;33.30;23.77;;;;;;;;;;5082239;28;20660;-85
2024/01/18 00:23:59;;;;;;;34.10;23.60;;;;;;;;;;5068337;28;20295;-88
2024/01/18 00:26:25;;;;;;;34.23;23.97;;;;;;;;;;5084245;28;20192;-86
2024/01/18 00:28:52;;;;;;;35.67;23.83;;;;;;;;;;5069749;28;20239;-86
2024/01/18 00:31:18;;;;;;;37.80;24.53;;;;;;;;;;5064594;28;20217;-85
2024/01/18 00:33:45;;;;;;;37.67;24.30;;;;;;;;;;5065630;28;20199;-87
2024/01/18 00:36:12;;;;;;;32.77;23.97;;;;;;;;;;5068587;28;20196;-87
2024/01/18 00:38:38;;;;;;;33.47;22.47;;;;;;;;;;5079451;28;21383;-86
2024/01/18 00:41:06;;;;;;;34.73;22.70;;;;;;;;;;5061987;28;20578;-88
2024/01/18 00:43:32;;;;;;;34.20;22.63;;;;;;;;;;5079852;28;20204;-88
2024/01/18 00:46:02;;;;;;;40.73;23.40;;;;;;;;;;5075814;28;20240;-88
2024/01/18 00:48:28;;;;;;;34.77;24.20;;;;;;;;;;5074918;28;20211;-87
2024/01/18 00:50:56;;;;;;;33.77;22.90;;;;;;;;;;5080208;28;20271;-86
2024/01/18 00:53:22;;;;;;;33.60;23.00;;;;;;;;;;5053079;28;20227;-86
2024/01/18 00:55:52;;;;;;;34.63;23.30;;;;;;;;;;5070870;28;20204;-86
2024/01/18 00:58:18;;;;;;;33.63;23.03;;;;;;;;;;5077322;28;20683;-88
2024/01/18 01:00:45;;;;;;;37.30;23.97;;;;;;;;;;5079315;28;20657;-88
2024/01/18 01:03:12;;;;;;;36.73;24.17;;;;;;;;;;5063123;28;20230;-87
2024/01/18 01:05:41;;;;;;;34.27;24.30;;;;;;;;;;5093274;28;20199;-87
2024/01/18 01:08:08;;;;;;;32.93;23.07;;;;;;;;;;5067823;28;20253;-87
2024/01/18 01:10:34;;;;;;;36.47;23.53;;;;;;;;;;5080945;28;20196;-86
2024/01/18 01:13:01;;;;;;;35.77;23.63;;;;;;;;;;5081082;28;20240;-87
2024/01/18 01:15:27;;;;;;;37.80;24.83;;;;;;;;;;5056995;28;20254;-87
2024/01/18 01:17:54;;;;;;;35.73;25.10;;;;;;;;;;5065072;28;20211;-87
2024/01/18 01:20:21;;;;;;;34.03;23.53;;;;;;;;;;5082587;28;20220;-87
2024/01/18 01:22:47;;;;;;;34.57;23.13;;;;;;;;;;5080512;28;20196;-88
2024/01/18 01:25:14;;;;;;;33.60;23.23;;;;;;;;;;5071982;28;20208;-85
2024/01/18 01:27:41;;;;;;;34.73;23.53;;;;;;;;;;5082884;28;20204;-89
2024/01/18 01:30:08;;;;;;;35.10;23.97;;;;;;;;;;5071592;28;20189;-86
2024/01/18 01:32:34;;;;;;;34.53;23.07;;;;;;;;;;5081786;28;20223;-86
2024/01/18 01:35:01;;;;;;;34.57;22.93;;;;;;;;;;5081203;28;20209;-86
2024/01/18 01:37:28;;;;;;;34.77;23.43;;;;;;;;;;5087858;28;20249;-86
2024/01/18 01:39:54;;;;;;;33.43;22.17;;;;;;;;;;5077290;28;20204;-86
2024/01/18 01:42:21;;;;;;;33.43;22.73;;;;;;;;;;5087959;28;20223;-86
2024/01/18 01:44:49;;;;;;;33.37;22.53;;;;;;;;;;5082192;28;20217;-85
2024/01/18 01:47:16;;;;;;;33.47;22.23;;;;;;;;;;5075569;28;20245;-85
2024/01/18 01:49:42;;;;;;;31.83;22.23;;;;;;;;;;5082827;28;20262;-85
2024/01/18 01:52:10;;;;;;;33.90;22.63;;;;;;;;;;5085813;28;20215;-87
2024/01/18 01:54:37;;;;;;;35.20;23.40;;;;;;;;;;5068338;28;20204;-85
2024/01/18 01:57:04;;;;;;;33.87;23.57;;;;;;;;;;5060027;28;20204;-86
2024/01/18 01:59:31;;;;;;;32.87;23.33;;;;;;;;;;5068408;28;20211;-86
2024/01/18 02:01:58;;;;;;;34.33;23.67;;;;;;;;;;5072719;28;20203;-86
2024/01/18 02:04:25;;;;;;;30.90;22.57;;;;;;;;;;5082343;28;20193;-86
2024/01/18 02:06:53;;;;;;;30.57;22.93;;;;;;;;;;5083059;28;20295;-86
2024/01/18 02:09:20;;;;;;;32.77;22.10;;;;;;;;;;5084359;28;20267;-88
2024/01/18 02:11:47;;;;;;;29.13;21.47;;;;;;;;;;5065239;28;20808;-86
2024/01/18 02:14:13;;;;;;;31.90;22.10;;;;;;;;;;5066070;28;20200;-87
2024/01/18 02:16:40;;;;;;;31.70;22.40;;;;;;;;;;5079275;28;20192;-88
2024/01/18 02:19:07;;;;;;;32.23;22.37;;;;;;;;;;5079541;28;20236;-87
2024/01/18 02:21:34;;;;;;;30.83;21.97;;;;;;;;;;5082871;28;20265;-86
2024/01/18 02:24:15;;;;;;;33.83;22.97;;;;;;;;;;5087074;28;20203;-85
2024/01/18 02:26:42;;;;;;;32.83;22.57;;;;;;;;;;5082980;28;20200;-87
2024/01/18 02:29:10;;;;;;;32.80;23.27;;;;;;;;;;5071491;28;20242;-88
2024/01/18 02:31:36;;;;;;;28.57;21.53;;;;;;;;;;5070044;28;20246;-87
2024/01/18 02:34:15;;;;;;;36.87;23.73;;;;;;;;;;5076033;28;20203;-87
2024/01/18 02:36:43;;;;;;;33.30;23.60;;;;;;;;;;5069409;28;20265;-87
2024/01/18 02:39:10;;;;;;;31.87;22.50;;;;;;;;;;5090333;28;20192;-87
2024/01/18 02:41:37;;;;;;;33.17;22.43;;;;;;;;;;5071839;28;20719;-85
2024/01/18 02:44:03;;;;;;;34.53;23.73;;;;;;;;;;5079474;28;20211;-87
2024/01/18 02:46:31;;;;;;;34.43;22.80;;;;;;;;;;5083559;28;20220;-86
2024/01/18 02:48:58;;;;;;;33.40;22.73;;;;;;;;;;5085191;28;20287;-87
2024/01/18 02:51:24;;;;;;;30.10;22.00;;;;;;;;;;5078221;28;20232;-86
2024/01/18 02:53:51;;;;;;;32.83;22.50;;;;;;;;;;5079626;28;20192;-89
2024/01/18 02:56:19;;;;;;;32.90;22.53;;;;;;;;;;5077520;28;20661;-88
2024/01/18 02:58:46;;;;;;;30.57;21.70;;;;;;;;;;5082446;28;20726;-87
2024/01/18 03:01:13;;;;;;;30.20;21.60;;;;;;;;;;5084342;28;20204;-85
2024/01/18 03:03:39;;;;;;;32.70;22.03;;;;;;;;;;5080242;28;20295;-88
2024/01/18 03:06:06;;;;;;;30.47;22.00;;;;;;;;;;5095289;28;20250;-87
2024/01/18 03:08:33;;;;;;;30.30;21.23;;;;;;;;;;5067685;28;20208;-87
2024/01/18 03:10:59;;;;;;;33.40;22.83;;;;;;;;;;5072717;28;20235;-87
2024/01/18 03:13:26;;;;;;;30.30;21.13;;;;;;;;;;5082977;28;20675;-88
2024/01/18 03:15:52;;;;;;;32.77;22.43;;;;;;;;;;5077591;28;20235;-87
2024/01/18 03:18:19;;;;;;;30.57;21.67;;;;;;;;;;5061440;28;20273;-85
2024/01/18 03:20:45;;;;;;;30.30;21.43;;;;;;;;;;5084770;28;20291;-87
2024/01/18 03:23:12;;;;;;;30.27;22.30;;;;;;;;;;5062737;28;20205;-87
2024/01/18 03:25:39;;;;;;;30.90;21.70;;;;;;;;;;5083967;28;20184;-86
2024/01/18 03:28:05;;;;;;;32.20;22.60;;;;;;;;;;5063768;28;20196;-88
2024/01/18 03:30:32;;;;;;;30.47;22.17;;;;;;;;;;5088270;28;20200;-85
2024/01/18 03:32:58;;;;;;;32.50;22.70;;;;;;;;;;5080796;28;20229;-86
2024/01/18 03:35:25;;;;;;;35.20;23.60;;;;;;;;;;5084829;28;20197;-88
2024/01/18 03:37:52;;;;;;;35.70;22.93;;;;;;;;;;5073287;28;20204;-86
2024/01/18 03:40:18;;;;;;;35.50;23.67;;;;;;;;;;5071656;28;20189;-87
2024/01/18 03:42:45;;;;;;;40.40;25.33;;;;;;;;;;5065726;28;20242;-85
2024/01/18 03:45:12;;;;;;;39.27;25.17;;;;;;;;;;5066883;28;20759;-88
2024/01/18 03:47:39;;;;;;;38.77;24.70;;;;;;;;;;5068306;28;20199;-85
2024/01/18 03:50:06;;;;;;;37.93;24.00;;;;;;;;;;5061892;28;20712;-88
2024/01/18 03:52:33;;;;;;;39.80;25.17;;;;;;;;;;5058970;28;20220;-87
2024/01/18 03:54:59;;;;;;;47.97;26.87;;;;;;;;;;5078460;28;20219;-87
2024/01/18 03:57:26;;;;;;;38.17;25.37;;;;;;;;;;5080105;28;20220;-87
2024/01/18 03:59:52;;;;;;;42.13;26.40;;;;;;;;;;5054517;28;20206;-88
2024/01/18 04:02:19;;;;;;;41.97;26.53;;;;;;;;;;5073577;28;20206;-85
2024/01/18 04:04:46;;;;;;;43.47;27.13;;;;;;;;;;5064650;28;20235;-86
2024/01/18 04:07:15;;;;;;;41.37;26.37;;;;;;;;;;5065561;28;20689;-87
2024/01/18 04:09:41;;;;;;;41.03;25.67;;;;;;;;;;5058943;28;20232;-88
2024/01/18 04:12:08;;;;;;;46.13;26.80;;;;;;;;;;5058372;28;20220;-88
2024/01/18 04:14:35;;;;;;;45.23;27.10;;;;;;;;;;5057645;28;20280;-87
2024/01/18 04:17:01;;;;;;;46.80;26.97;;;;;;;;;;5082096;28;20275;-85
2024/01/18 04:19:28;;;;;;;44.97;27.20;;;;;;;;;;5060003;28;20220;-87
2024/01/18 04:21:54;;;;;;;45.97;27.03;;;;;;;;;;5070636;28;20200;-85
2024/01/18 04:24:21;;;;;;;43.17;26.53;;;;;;;;;;5074813;28;20273;-86
2024/01/18 04:26:49;;;;;;;41.00;26.33;;;;;;;;;;5066862;28;20196;-86
2024/01/18 04:29:16;;;;;;;42.03;26.27;;;;;;;;;;5073918;28;20211;-84
2024/01/18 04:31:42;;;;;;;42.43;24.97;;;;;;;;;;5093308;28;20248;-83
2024/01/18 04:34:09;;;;;;;43.90;25.70;;;;;;;;;;5092747;28;20220;-85
2024/01/18 04:36:35;;;;;;;42.43;24.97;;;;;;;;;;5090088;28;20185;-82
2024/01/18 04:39:02;;;;;;;45.37;26.23;;;;;;;;;;5088093;28;20207;-82
2024/01/18 04:41:29;;;;;;;47.27;26.80;;;;;;;;;;5078246;28;20677;-82
2024/01/18 04:43:55;;;;;;;51.73;26.93;;;;;;;;;;5081984;28;20188;-83
2024/01/18 04:46:23;;;;;;;49.83;27.80;;;;;;;;;;5074474;28;20212;-80
2024/01/18 04:48:49;;;;;;;53.80;27.33;;;;;;;;;;5084216;28;20208;-80
2024/01/18 04:51:16;;;;;;;50.13;27.63;;;;;;;;;;5074545;28;20236;-80
2024/01/18 04:53:43;;;;;;;49.60;26.83;;;;;;;;;;5075593;28;20224;-81
2024/01/18 04:56:09;;;;;;;46.93;26.60;;;;;;;;;;5078612;28;20188;-82
2024/01/18 04:58:36;;;;;;;46.17;25.90;;;;;;;;;;5080693;28;20246;-81
2024/01/18 05:01:05;;;;;;;51.13;28.40;;;;;;;;;;5086615;28;20192;-80
2024/01/18 05:03:32;;;;;;;49.93;28.20;;;;;;;;;;5082385;28;20200;-81
2024/01/18 05:05:59;;;;;;;53.63;27.30;;;;;;;;;;5080036;28;20204;-81
2024/01/18 05:08:26;;;;;;;48.80;26.47;;;;;;;;;;5082793;28;20188;-80
2024/01/18 05:10:56;;;;;;;49.07;27.53;;;;;;;;;;5078336;28;20185;-80
2024/01/18 05:13:26;;;;;;;43.73;26.17;;;;;;;;;;5074338;28;20217;-83
2024/01/18 05:15:52;;;;;;;43.47;26.73;;;;;;;;;;5077293;28;20277;-80
2024/01/18 05:18:19;;;;;;;42.90;26.00;;;;;;;;;;5083909;28;20223;-80
2024/01/18 05:20:46;;;;;;;45.37;25.10;;;;;;;;;;5084428;28;20254;-80
2024/01/18 05:23:13;;;;;;;44.27;26.77;;;;;;;;;;5078774;28;20238;-80
2024/01/18 05:25:40;;;;;;;46.53;25.83;;;;;;;;;;5085031;28;20197;-80
2024/01/18 05:28:06;;;;;;;44.00;27.10;;;;;;;;;;5083389;28;20201;-80
2024/01/18 05:30:33;;;;;;;45.67;26.23;;;;;;;;;;5084666;28;20215;-81
2024/01/18 05:33:00;;;;;;;46.70;26.63;;;;;;;;;;5083461;28;20219;-80
2024/01/18 05:35:27;;;;;;;45.73;25.33;;;;;;;;;;5075523;28;20199;-80
2024/01/18 05:37:53;;;;;;;43.73;25.10;;;;;;;;;;5096312;28;20661;-79
2024/01/18 05:40:22;;;;;;;42.17;25.33;;;;;;;;;;5082026;28;20201;-79
2024/01/18 05:42:49;;;;;;;40.07;24.20;;;;;;;;;;5084097;28;20859;-79
2024/01/18 05:45:15;;;;;;;44.23;25.30;;;;;;;;;;5059747;28;20247;-78
2024/01/18 05:47:42;;;;;;;41.80;24.67;;;;;;;;;;5071192;28;20207;-80
2024/01/18 05:50:09;;;;;;;44.57;25.47;;;;;;;;;;5071190;28;20713;-78
2024/01/18 05:52:36;;;;;;;39.70;23.33;;;;;;;;;;5071909;28;20239;-79
2024/01/18 05:55:04;;;;;;;43.97;24.80;;;;;;;;;;5073397;28;20197;-80
2024/01/18 05:57:31;;;;;;;46.23;24.60;;;;;;;;;;5073419;28;20193;-79
2024/01/18 05:59:58;;;;;;;43.63;25.37;;;;;;;;;;5079231;28;20206;-79
2024/01/18 06:02:24;;;;;;;46.30;26.07;;;;;;;;;;5070413;28;20271;-79
2024/01/18 06:04:51;;;;;;;45.30;26.13;;;;;;;;;;5073579;28;20654;-79
2024/01/18 06:07:17;;;;;;;45.73;25.30;;;;;;;;;;5076849;28;20189;-79
2024/01/18 06:09:44;;;;;;;44.37;25.83;;;;;;;;;;5070059;28;20221;-80
2024/01/18 06:12:11;;;;;;;42.87;26.23;;;;;;;;;;5069973;28;20197;-82
2024/01/18 06:14:38;;;;;;;47.60;25.93;;;;;;;;;;5071837;28;20204;-79
2024/01/18 06:17:04;;;;;;;50.33;26.47;;;;;;;;;;5076523;28;20189;-79
2024/01/18 06:19:32;;;;;;;42.87;27.23;;;;;;;;;;5086724;28;20406;-79
2024/01/18 06:21:59;;;;;;;51.67;31.33;;;;;;;;;;5086109;28;20189;-83
2024/01/18 06:24:28;;;;;;;48.07;28.73;;;;;;;;;;5079686;28;20222;-79
2024/01/18 06:26:55;;;;;;;44.23;26.97;;;;;;;;;;5074992;28;20200;-79
2024/01/18 06:29:29;;;;;;;47.27;29.37;;;;;;;;;;5073965;28;20196;-80
2024/01/18 06:31:56;;;;;;;46.67;27.47;;;;;;;;;;5079422;28;20280;-80
2024/01/18 06:34:22;;;;;;;43.37;27.53;;;;;;;;;;5086562;28;20208;-79
2024/01/18 06:36:51;;;;;;;47.20;29.13;;;;;;;;;;5084703;28;20207;-79
2024/01/18 06:39:18;;;;;;;42.10;29.27;;;;;;;;;;5087455;28;20192;-79
2024/01/18 06:41:44;;;;;;;40.00;26.67;;;;;;;;;;5083962;28;20249;-80
2024/01/18 06:44:11;;;;;;;42.50;27.33;;;;;;;;;;5082656;28;20692;-79
2024/01/18 06:46:37;;;;;;;38.73;26.23;;;;;;;;;;5077181;28;20243;-79
2024/01/18 06:49:04;;;;;;;42.53;26.20;;;;;;;;;;5087830;28;20254;-79
2024/01/18 06:51:31;;;;;;;40.97;26.13;;;;;;;;;;5086269;28;20716;-79
2024/01/18 06:53:58;;;;;;;41.07;26.83;;;;;;;;;;5087284;28;20216;-79
2024/01/18 06:56:25;;;;;;;41.90;26.80;;;;;;;;;;5088956;28;20203;-82
2024/01/18 06:58:52;;;;;;;41.77;26.80;;;;;;;;;;5082813;28;20228;-79
2024/01/18 07:01:19;;;;;;;39.30;26.63;;;;;;;;;;5083592;28;20189;-79
2024/01/18 07:03:47;;;;;;;40.83;26.40;;;;;;;;;;5085160;28;20284;-79
2024/01/18 07:06:14;;;;;;;39.97;26.47;;;;;;;;;;5082385;28;20189;-81
2024/01/18 07:08:40;;;;;;;42.37;27.57;;;;;;;;;;5082257;28;20193;-79
2024/01/18 07:11:07;;;;;;;38.23;26.40;;;;;;;;;;5085791;28;20193;-79
2024/01/18 07:13:33;;;;;;;41.07;26.43;;;;;;;;;;5082619;28;20315;-79
2024/01/18 07:16:03;;;;;;;41.63;26.87;;;;;;;;;;5083276;28;20672;-80
2024/01/18 07:18:29;;;;;;;40.83;26.47;;;;;;;;;;5087057;28;20272;-79
2024/01/18 07:20:56;;;;;;;40.07;25.97;;;;;;;;;;5078163;28;20209;-83
2024/01/18 07:23:22;;;;;;;40.30;26.27;;;;;;;;;;5082448;28;20276;-80
2024/01/18 07:25:49;;;;;;;38.33;26.03;;;;;;;;;;5073678;28;20721;-79
2024/01/18 07:28:15;;;;;;;37.03;25.10;;;;;;;;;;5077340;28;20200;-79
2024/01/18 07:30:42;;;;;;;39.37;26.00;;;;;;;;;;5077569;28;20207;-79
2024/01/18 07:33:10;;;;;;;39.53;26.50;;;;;;;;;;5083674;28;20291;-79
2024/01/18 07:35:37;;;;;;;39.07;26.17;;;;;;;;;;5084833;28;20195;-81
2024/01/18 07:38:04;;;;;;;37.37;25.47;;;;;;;;;;5085451;28;20196;-80
2024/01/18 07:40:31;;;;;;;36.33;25.47;;;;;;;;;;5087866;28;20202;-79
2024/01/18 07:42:57;;;;;;;39.17;25.63;;;;;;;;;;5084912;28;20185;-80
2024/01/18 07:45:24;;;;;;;34.27;24.90;;;;;;;;;;5078961;28;20231;-79
2024/01/18 07:47:51;;;;;;;34.93;25.27;;;;;;;;;;5086303;28;20192;-79
2024/01/18 07:50:17;;;;;;;37.70;26.03;;;;;;;;;;5079361;28;20232;-79
2024/01/18 07:53:00;;;;;;;34.27;24.07;;;;;;;;;;5090379;28;20215;-79
2024/01/18 07:55:28;;;;;;;35.23;25.37;;;;;;;;;;5087864;28;20681;-80
2024/01/18 07:57:55;;;;;;;33.90;25.47;;;;;;;;;;5087860;28;20217;-82
2024/01/18 08:00:22;;;;;;;32.87;24.53;;;;;;;;;;5084306;28;20197;-79
2024/01/18 08:02:48;;;;;;;37.77;24.80;;;;;;;;;;5085264;28;20281;-79
2024/01/18 08:05:15;;;;;;;33.10;24.10;;;;;;;;;;5081983;28;20216;-82
2024/01/18 08:07:42;;;;;;;33.13;24.27;;;;;;;;;;5081795;28;20200;-79
2024/01/18 08:10:09;;;;;;;32.43;23.50;;;;;;;;;;5078658;28;20275;-80
2024/01/18 08:12:36;;;;;;;33.77;23.60;;;;;;;;;;5080428;28;20196;-80
2024/01/18 08:15:03;;;;;;;31.53;23.20;;;;;;;;;;5082302;28;20245;-79
2024/01/18 08:17:30;;;;;;;29.80;23.20;;;;;;;;;;5079413;28;20185;-79
2024/01/18 08:19:57;;;;;;;31.87;22.70;;;;;;;;;;5083780;28;20192;-80
2024/01/18 08:22:23;;;;;;;30.67;23.43;;;;;;;;;;5085788;28;20192;-79
2024/01/18 08:24:50;;;;;;;30.17;22.27;;;;;;;;;;5086130;28;20247;-79
2024/01/18 08:27:16;;;;;;;28.17;22.37;;;;;;;;;;5084509;28;20199;-80
2024/01/18 08:29:43;;;;;;;29.90;21.80;;;;;;;;;;5083006;28;20189;-80
2024/01/18 08:32:09;;;;;;;29.40;22.03;;;;;;;;;;5083759;28;20192;-79
2024/01/18 08:34:36;;;;;;;33.43;26.07;;;;;;;;;;5083436;28;20256;-79
2024/01/18 08:37:03;;;;;;;37.70;28.40;;;;;;;;;;5076638;28;20189;-79
2024/01/18 08:39:30;;;;;;;37.97;28.07;;;;;;;;;;5081209;28;20289;-80
2024/01/18 08:41:59;;;;;;;32.20;25.50;;;;;;;;;;5090968;28;20192;-79
2024/01/18 08:44:27;;;;;;;29.93;24.30;;;;;;;;;;5079259;28;20195;-82
2024/01/18 08:46:53;;;;;;;29.00;23.37;;;;;;;;;;5084555;28;20208;-79
2024/01/18 08:49:24;;;;;;;25.77;20.93;;;;;;;;;;5083258;28;20196;-79
2024/01/18 08:51:52;;;;;;;24.70;20.63;;;;;;;;;;5080457;28;20616;-80
2024/01/18 08:54:20;;;;;;;27.13;22.47;;;;;;;;;;5083868;28;20798;-79
2024/01/18 08:56:47;;;;;;;28.20;21.33;;;;;;;;;;5082028;28;20609;-79
2024/01/18 08:59:13;;;;;;;31.07;23.00;;;;;;;;;;5077149;28;20342;-80
2024/01/18 09:01:40;;;;;;;26.93;21.80;;;;;;;;;;5071527;28;20246;-80
2024/01/18 09:04:07;;;;;;;26.93;19.57;;;;;;;;;;5084293;28;20197;-79
2024/01/18 09:06:36;;;;;;;25.60;20.10;;;;;;;;;;5085672;28;20737;-80
2024/01/18 09:09:03;;;;;;;23.97;19.17;;;;;;;;;;5083069;28;20188;-80
2024/01/18 09:11:30;;;;;;;22.83;19.30;;;;;;;;;;5082681;28;20199;-79
2024/01/18 09:13:57;;;;;;;28.87;20.20;;;;;;;;;;5081794;28;20242;-80
2024/01/18 09:16:23;;;;;;;22.73;19.67;;;;;;;;;;5083976;28;20196;-79
2024/01/18 09:18:50;;;;;;;23.23;18.73;;;;;;;;;;5078589;28;20246;-80
2024/01/18 09:21:43;;;;;;;22.87;18.73;;;;;;;;;;5084593;28;20280;-79
2024/01/18 09:24:10;;;;;;;22.07;18.90;;;;;;;;;;5088573;28;20676;-80
2024/01/18 09:26:36;;;;;;;23.40;20.00;;;;;;;;;;5085988;28;20270;-80
2024/01/18 09:29:03;;;;;;;25.77;20.43;;;;;;;;;;5076092;28;20325;-80
2024/01/18 09:31:30;;;;;;;34.90;23.77;;;;;;;;;;5084124;28;20220;-81
2024/01/18 09:34:08;;;;;;;44.80;31.13;;;;;;;;;;5083118;28;20210;-79
2024/01/18 09:36:34;;;;;;;44.27;34.47;;;;;;;;;;5082374;28;20189;-79
2024/01/18 09:39:01;;;;;;;22.47;18.03;;;;;;;;;;5091051;28;20660;-79
2024/01/18 09:41:30;;;;;;;25.63;18.70;;;;;;;;;;5077729;28;20199;-80
2024/01/18 09:44:04;;;;;;;19.50;15.67;;;;;;;;;;5075476;28;20188;-80
2024/01/18 09:46:31;;;;;;;18.97;14.93;;;;;;;;;;5075112;28;20216;-83
2024/01/18 09:48:58;;;;;;;18.00;14.57;;;;;;;;;;5075716;28;20198;-81
2024/01/18 09:51:30;;;;;;;17.83;14.60;;;;;;;;;;5091696;28;20234;-80
2024/01/18 09:53:58;;;;;;;16.37;14.07;;;;;;;;;;5074078;28;20209;-79
2024/01/18 09:56:26;;;;;;;17.20;14.77;;;;;;;;;;5085583;28;20196;-81
2024/01/18 09:58:53;;;;;;;18.93;15.53;;;;;;;;;;5087543;28;20658;-79
2024/01/18 10:01:20;;;;;;;16.37;13.63;;;;;;;;;;5083741;28;20196;-79
2024/01/18 10:03:48;;;;;;;18.60;15.33;;;;;;;;;;5085428;28;20653;-80
2024/01/18 10:06:17;;;;;;;18.53;15.20;;;;;;;;;;5084897;28;20246;-80
2024/01/18 10:08:49;;;;;;;15.93;13.97;;;;;;;;;;5086338;28;20666;-79
2024/01/18 10:11:16;;;;;;;15.30;13.43;;;;;;;;;;5086955;28;20199;-81
2024/01/18 10:13:52;;;;;;;15.27;13.43;;;;;;;;;;5086004;28;20235;-80
2024/01/18 10:16:32;;;;;;;13.37;11.97;;;;;;;;;;5083368;28;20200;-79
2024/01/18 10:19:00;;;;;;;12.83;11.43;;;;;;;;;;5077686;28;20200;-80
2024/01/18 10:21:27;;;;;;;12.93;11.53;;;;;;;;;;5083151;28;20193;-78
2024/01/18 10:23:54;;;;;;;13.83;11.90;;;;;;;;;;5085947;28;20193;-77
2024/01/18 10:26:24;;;;;;;12.17;10.60;;;;;;;;;;5082852;28;20689;-79
2024/01/18 10:28:51;;;;;;;14.30;10.33;;;;;;;;;;5076603;28;20341;-80
2024/01/18 10:31:17;;;;;;;13.40;10.87;;;;;;;;;;5078872;28;20212;-81
2024/01/18 10:33:47;;;;;;;12.73;10.70;;;;;;;;;;5084765;28;20209;-80
2024/01/18 10:36:14;;;;;;;12.17;10.93;;;;;;;;;;5093355;28;20202;-77
2024/01/18 10:38:41;;;;;;;12.37;11.10;;;;;;;;;;5085138;28;20193;-77
2024/01/18 10:41:08;;;;;;;13.20;11.80;;;;;;;;;;5094164;28;20253;-79
2024/01/18 10:43:35;;;;;;;31.37;24.10;;;;;;;;;;5087235;28;20196;-78
2024/01/18 10:46:02;;;;;;;15.07;13.07;;;;;;;;;;5073974;28;20657;-78
2024/01/18 10:48:32;;;;;;;13.37;12.03;;;;;;;;;;5076845;28;20257;-79
2024/01/18 10:51:01;;;;;;;12.63;11.43;;;;;;;;;;5074329;28;20301;-80
2024/01/18 10:53:34;;;;;;;12.77;11.00;;;;;;;;;;5073705;28;20200;-80
2024/01/18 10:56:02;;;;;;;11.63;10.53;;;;;;;;;;5075759;28;20682;-78
2024/01/18 10:58:32;;;;;;;11.33;10.23;;;;;;;;;;5076696;28;20201;-80
2024/01/18 11:00:59;;;;;;;10.77;9.70;;;;;;;;;;5078038;28;20206;-79
2024/01/18 11:03:26;;;;;;;10.03;9.03;;;;;;;;;;5088967;28;20233;-80
2024/01/18 11:05:53;;;;;;;10.80;8.43;;;;;;;;;;5088849;28;20211;-78
2024/01/18 11:08:21;;;;;;;9.33;8.43;;;;;;;;;;5092932;28;20672;-79
2024/01/18 11:10:47;;;;;;;8.93;7.90;;;;;;;;;;5089487;28;20192;-78
2024/01/18 11:13:15;;;;;;;9.13;8.20;;;;;;;;;;5092020;28;20275;-80
2024/01/18 11:15:44;;;;;;;9.00;8.10;;;;;;;;;;5087288;28;20212;-78
2024/01/18 11:18:11;;;;;;;9.77;8.80;;;;;;;;;;5084830;28;20196;-79
2024/01/18 11:21:04;;;;;;;9.87;8.87;;;;;;;;;;5085517;28;20197;-78
2024/01/18 11:23:34;;;;;;;10.27;9.03;;;;;;;;;;5072225;28;20296;-79
2024/01/18 11:26:01;;;;;;;9.60;8.57;;;;;;;;;;5078920;28;20193;-78
2024/01/18 11:28:28;;;;;;;21.60;18.23;;;;;;;;;;5077382;28;20192;-79
2024/01/18 11:30:55;;;;;;;102.53;42.37;;;;;;;;;;5078738;28;20661;-79
2024/01/18 11:33:22;;;;;;;51.20;30.30;;;;;;;;;;5076948;28;20238;-78
2024/01/18 11:35:49;;;;;;;55.50;30.60;;;;;;;;;;5084704;28;20216;-79
2024/01/18 11:38:15;;;;;;;47.40;23.70;;;;;;;;;;5083386;28;20196;-79
2024/01/18 11:40:42;;;;;;;52.50;19.80;;;;;;;;;;5081602;28;20188;-80
2024/01/18 11:43:10;;;;;;;30.10;14.27;;;;;;;;;;5082351;28;20193;-79
2024/01/18 11:45:37;;;;;;;43.90;17.30;;;;;;;;;;5073208;28;20269;-78
2024/01/18 11:48:05;;;;;;;9.40;7.87;;;;;;;;;;5082048;28;20193;-78
2024/01/18 11:50:32;;;;;;;10.97;8.50;;;;;;;;;;5089146;28;20232;-79
2024/01/18 11:52:59;;;;;;;21.27;13.37;;;;;;;;;;5089708;28;20200;-77
2024/01/18 11:55:30;;;;;;;26.27;14.50;;;;;;;;;;5088013;28;20221;-79
2024/01/18 11:57:57;;;;;;;28.60;16.37;;;;;;;;;;5086444;28;20744;-79
2024/01/18 12:00:23;;;;;;;30.23;16.67;;;;;;;;;;5075851;28;20189;-78
2024/01/18 12:02:50;;;;;;;30.67;14.97;;;;;;;;;;5089926;28;20199;-79
2024/01/18 12:05:16;;;;;;;23.27;12.80;;;;;;;;;;5061776;28;20732;-79
2024/01/18 12:07:44;;;;;;;21.07;12.17;;;;;;;;;;5085656;28;20271;-80
2024/01/18 12:10:11;;;;;;;18.90;14.87;;;;;;;;;;5075949;28;20192;-81
2024/01/18 12:12:41;;;;;;;10.70;9.60;;;;;;;;;;5082479;28;20192;-80
2024/01/18 12:15:15;;;;;;;25.47;20.07;;;;;;;;;;5083212;28;20212;-79
2024/01/18 12:17:42;;;;;;;12.93;10.13;;;;;;;;;;5089557;28;20207;-79
2024/01/18 12:20:13;;;;;;;19.47;15.77;;;;;;;;;;5087546;28;20196;-79
2024/01/18 12:22:40;;;;;;;10.60;8.97;;;;;;;;;;5076052;28;20207;-81
2024/01/18 12:25:06;;;;;;;11.20;10.10;;;;;;;;;;5073054;28;20273;-80
2024/01/18 12:27:33;;;;;;;9.03;8.13;;;;;;;;;;5091643;28;20191;-78
2024/01/18 12:30:00;;;;;;;8.87;7.97;;;;;;;;;;5090536;28;20204;-79
2024/01/18 12:32:27;;;;;;;10.30;9.03;;;;;;;;;;5076564;28;20246;-79
2024/01/18 12:34:57;;;;;;;12.47;9.30;;;;;;;;;;5077409;28;20365;-80
2024/01/18 12:37:24;;;;;;;10.80;9.70;;;;;;;;;;5074175;28;20199;-80
2024/01/18 12:39:51;;;;;;;19.10;12.97;;;;;;;;;;5079510;28;20211;-81
2024/01/18 12:42:18;;;;;;;28.17;17.53;;;;;;;;;;5077628;28;20207;-79
2024/01/18 12:44:44;;;;;;;21.37;14.87;;;;;;;;;;5078584;28;20217;-80
2024/01/18 12:47:11;;;;;;;16.50;13.23;;;;;;;;;;5087474;28;20200;-81
2024/01/18 12:49:39;;;;;;;21.77;16.57;;;;;;;;;;5081579;28;20652;-80
2024/01/18 12:52:06;;;;;;;22.50;17.63;;;;;;;;;;5087512;28;20245;-81
2024/01/18 12:54:34;;;;;;;17.83;14.87;;;;;;;;;;5084620;28;20224;-80
2024/01/18 12:57:06;;;;;;;16.30;14.17;;;;;;;;;;5088559;28;20279;-79
2024/01/18 12:59:33;;;;;;;24.00;18.83;;;;;;;;;;5083039;28;20275;-79
2024/01/18 13:02:00;;;;;;;23.83;17.77;;;;;;;;;;5088623;28;20192;-79
2024/01/18 13:04:28;;;;;;;15.87;12.97;;;;;;;;;;5072182;28;20270;-79
2024/01/18 13:06:55;;;;;;;30.00;19.80;;;;;;;;;;5080758;28;20204;-79
2024/01/18 13:09:30;;;;;;;14.87;13.10;;;;;;;;;;5081757;28;20200;-79
2024/01/18 13:12:01;;;;;;;15.47;13.43;;;;;;;;;;5081389;28;20192;-78
2024/01/18 13:14:31;;;;;;;16.23;13.63;;;;;;;;;;5085869;28;20215;-78
2024/01/18 13:16:58;;;;;;;14.30;12.53;;;;;;;;;;5083670;28;20207;-80
2024/01/18 13:19:24;;;;;;;14.50;12.27;;;;;;;;;;5085655;28;20200;-79
2024/01/18 13:21:53;;;;;;;15.43;13.07;;;;;;;;;;5077700;28;20665;-79
2024/01/18 13:24:20;;;;;;;13.90;12.10;;;;;;;;;;5067538;28;20216;-79
2024/01/18 13:26:47;;;;;;;13.50;11.60;;;;;;;;;;5076374;28;20196;-79
2024/01/18 13:29:16;;;;;;;14.30;12.23;;;;;;;;;;5075893;28;20207;-80
2024/01/18 13:31:43;;;;;;;15.50;12.37;;;;;;;;;;5076439;28;20193;-80
2024/01/18 13:34:09;;;;;;;18.17;15.77;;;;;;;;;;5066707;28;20237;-80
2024/01/18 13:36:36;;;;;;;19.03;15.17;;;;;;;;;;5082341;28;20189;-79
2024/01/18 13:39:06;;;;;;;15.37;13.77;;;;;;;;;;5082391;28;20219;-79
2024/01/18 13:41:33;;;;;;;16.90;15.20;;;;;;;;;;5077669;28;20192;-80
2024/01/18 13:44:00;;;;;;;19.47;17.37;;;;;;;;;;5074881;28;20657;-81
2024/01/18 13:46:27;;;;;;;18.00;16.10;;;;;;;;;;5087812;28;20212;-79
2024/01/18 13:48:54;;;;;;;16.20;14.50;;;;;;;;;;5087004;28;20249;-79
2024/01/18 13:51:21;;;;;;;16.47;14.27;;;;;;;;;;5088445;28;20278;-80
2024/01/18 13:53:50;;;;;;;15.73;14.10;;;;;;;;;;5078666;28;20229;-80
2024/01/18 13:56:20;;;;;;;15.30;13.40;;;;;;;;;;5078725;28;20224;-81
2024/01/18 13:58:47;;;;;;;20.53;13.97;;;;;;;;;;5063635;28;20253;-80
2024/01/18 14:01:14;;;;;;;16.17;13.33;;;;;;;;;;5072953;28;20270;-80
2024/01/18 14:03:47;;;;;;;14.67;13.17;;;;;;;;;;5074920;28;20653;-79
2024/01/18 14:06:19;;;;;;;16.17;14.43;;;;;;;;;;5071592;28;20598;-80
2024/01/18 14:08:46;;;;;;;22.70;18.97;;;;;;;;;;5070789;28;20204;-80
2024/01/18 14:11:14;;;;;;;15.90;14.30;;;;;;;;;;5072190;28;20228;-81
2024/01/18 14:13:41;;;;;;;31.67;22.63;;;;;;;;;;5073487;28;20189;-79
2024/01/18 14:16:08;;;;;;;18.83;15.83;;;;;;;;;;5078467;28;20703;-79
2024/01/18 14:18:36;;;;;;;17.10;15.33;;;;;;;;;;5073453;28;20196;-79
2024/01/18 14:21:03;;;;;;;20.50;18.30;;;;;;;;;;5074593;28;20189;-80